sensor_id;sensor_type;location;lat;lon;timestamp;temperature;humidity
15666;DHT22;20725;51.196;3.510;2023-03-01T00:01:11;-0.20;67.30
15666;DHT22;20725;51.196;3.510;2023-03-01T00:03:38;-0.20;67.10
15666;DHT22;20725;51.196;3.510;2023-03-01T00:06:06;-0.20;67.90
15666;DHT22;20725;51.196;3.510;2023-03-01T00:08:33;-0.20;67.80
15666;DHT22;20725;51.196;3.510;2023-03-01T00:11:02;-0.20;67.70
15666;DHT22;20725;51.196;3.510;2023-03-01T00:13:29;-0.30;68.10
15666;DHT22;20725;51.196;3.510;2023-03-01T00:15:56;-0.30;69.40
15666;DHT22;20725;51.196;3.510;2023-03-01T00:18:24;-0.30;68.90
15666;DHT22;20725;51.196;3.510;2023-03-01T00:20:51;-0.30;68.60
15666;DHT22;20725;51.196;3.510;2023-03-01T00:23:18;-0.40;68.90
15666;DHT22;20725;51.196;3.510;2023-03-01T00:25:45;-0.40;68.50
15666;DHT22;20725;51.196;3.510;2023-03-01T00:28:12;-0.40;68.90
15666;DHT22;20725;51.196;3.510;2023-03-01T00:30:39;-0.40;69.40
15666;DHT22;20725;51.196;3.510;2023-03-01T00:33:06;-0.30;69.80
15666;DHT22;20725;51.196;3.510;2023-03-01T00:35:35;-0.30;70.40
15666;DHT22;20725;51.196;3.510;2023-03-01T00:38:02;-0.20;70.90
15666;DHT22;20725;51.196;3.510;2023-03-01T00:40:33;-0.30;71.20
15666;DHT22;20725;51.196;3.510;2023-03-01T00:43:00;-0.30;71.40
15666;DHT22;20725;51.196;3.510;2023-03-01T00:45:28;-0.30;71.90
15666;DHT22;20725;51.196;3.510;2023-03-01T00:47:56;-0.20;72.70
15666;DHT22;20725;51.196;3.510;2023-03-01T00:50:23;-0.20;72.70
15666;DHT22;20725;51.196;3.510;2023-03-01T00:52:53;-0.20;72.30
15666;DHT22;20725;51.196;3.510;2023-03-01T00:55:21;-0.20;73.30
15666;DHT22;20725;51.196;3.510;2023-03-01T00:57:48;-0.20;73.70
15666;DHT22;20725;51.196;3.510;2023-03-01T01:03:15;-0.20;73.60
15666;DHT22;20725;51.196;3.510;2023-03-01T01:06:35;-0.20;73.70
15666;DHT22;20725;51.196;3.510;2023-03-01T01:09:37;-0.30;74.00
15666;DHT22;20725;51.196;3.510;2023-03-01T01:12:28;-0.30;74.60
15666;DHT22;20725;51.196;3.510;2023-03-01T01:15:14;-0.30;73.80
15666;DHT22;20725;51.196;3.510;2023-03-01T01:17:44;-0.40;73.90
15666;DHT22;20725;51.196;3.510;2023-03-01T01:20:30;-0.40;74.20
15666;DHT22;20725;51.196;3.510;2023-03-01T01:23:41;-0.40;74.30
15666;DHT22;20725;51.196;3.510;2023-03-01T01:26:14;-0.40;74.50
15666;DHT22;20725;51.196;3.510;2023-03-01T01:28:47;-0.40;74.90
15666;DHT22;20725;51.196;3.510;2023-03-01T01:31:54;-0.40;75.30
15666;DHT22;20725;51.196;3.510;2023-03-01T01:35:59;-0.40;75.80
15666;DHT22;20725;51.196;3.510;2023-03-01T01:38:30;-0.50;75.70
15666;DHT22;20725;51.196;3.510;2023-03-01T01:41:05;-0.60;74.10
15666;DHT22;20725;51.196;3.510;2023-03-01T01:46:55;-0.60;75.30
15666;DHT22;20725;51.196;3.510;2023-03-01T01:49:28;-0.70;75.30
15666;DHT22;20725;51.196;3.510;2023-03-01T01:52:02;-0.70;75.50
15666;DHT22;20725;51.196;3.510;2023-03-01T02:00:56;-0.70;75.90
15666;DHT22;20725;51.196;3.510;2023-03-01T02:03:26;-0.70;77.00
15666;DHT22;20725;51.196;3.510;2023-03-01T02:06:28;-0.70;76.70
15666;DHT22;20725;51.196;3.510;2023-03-01T02:09:41;-0.80;77.30
15666;DHT22;20725;51.196;3.510;2023-03-01T02:12:09;-0.70;77.80
15666;DHT22;20725;51.196;3.510;2023-03-01T02:18:16;-0.80;77.70
15666;DHT22;20725;51.196;3.510;2023-03-01T02:21:14;-0.90;77.50
15666;DHT22;20725;51.196;3.510;2023-03-01T02:24:21;-0.70;77.60
15666;DHT22;20725;51.196;3.510;2023-03-01T02:27:38;-0.90;78.20
15666;DHT22;20725;51.196;3.510;2023-03-01T02:30:43;-0.90;78.10
15666;DHT22;20725;51.196;3.510;2023-03-01T02:33:28;-0.90;78.50
15666;DHT22;20725;51.196;3.510;2023-03-01T02:36:15;-0.80;78.00
15666;DHT22;20725;51.196;3.510;2023-03-01T02:39:03;-0.80;78.50
15666;DHT22;20725;51.196;3.510;2023-03-01T02:44:34;-0.90;78.90
15666;DHT22;20725;51.196;3.510;2023-03-01T02:47:15;-0.90;78.60
15666;DHT22;20725;51.196;3.510;2023-03-01T02:49:50;-0.90;78.80
15666;DHT22;20725;51.196;3.510;2023-03-01T02:52:34;-0.90;79.10
15666;DHT22;20725;51.196;3.510;2023-03-01T02:55:08;-0.90;79.20
15666;DHT22;20725;51.196;3.510;2023-03-01T02:58:02;-0.90;79.30
15666;DHT22;20725;51.196;3.510;2023-03-01T03:00:34;-0.90;79.20
15666;DHT22;20725;51.196;3.510;2023-03-01T03:03:25;-0.80;80.40
15666;DHT22;20725;51.196;3.510;2023-03-01T03:06:33;-1.00;80.20
15666;DHT22;20725;51.196;3.510;2023-03-01T03:09:11;-0.90;80.20
15666;DHT22;20725;51.196;3.510;2023-03-01T03:11:41;-0.90;79.70
15666;DHT22;20725;51.196;3.510;2023-03-01T03:14:50;-1.00;80.10
15666;DHT22;20725;51.196;3.510;2023-03-01T03:17:42;-0.90;81.40
15666;DHT22;20725;51.196;3.510;2023-03-01T03:20:14;-1.00;80.60
15666;DHT22;20725;51.196;3.510;2023-03-01T03:22:55;-1.00;80.80
15666;DHT22;20725;51.196;3.510;2023-03-01T03:25:29;-1.00;81.00
15666;DHT22;20725;51.196;3.510;2023-03-01T03:27:59;-1.00;80.70
15666;DHT22;20725;51.196;3.510;2023-03-01T03:30:29;-1.00;80.60
15666;DHT22;20725;51.196;3.510;2023-03-01T03:33:05;-0.90;81.40
15666;DHT22;20725;51.196;3.510;2023-03-01T03:35:45;-0.90;82.10
15666;DHT22;20725;51.196;3.510;2023-03-01T03:38:49;-0.90;82.20
15666;DHT22;20725;51.196;3.510;2023-03-01T03:41:16;-0.90;82.50
15666;DHT22;20725;51.196;3.510;2023-03-01T03:43:44;-1.00;82.40
15666;DHT22;20725;51.196;3.510;2023-03-01T03:46:12;-0.90;81.50
15666;DHT22;20725;51.196;3.510;2023-03-01T03:48:45;-0.90;81.80
15666;DHT22;20725;51.196;3.510;2023-03-01T03:51:42;-0.90;81.80
15666;DHT22;20725;51.196;3.510;2023-03-01T03:54:24;-0.90;82.20
15666;DHT22;20725;51.196;3.510;2023-03-01T03:57:18;-0.80;82.80
15666;DHT22;20725;51.196;3.510;2023-03-01T03:59:48;-0.80;82.70
15666;DHT22;20725;51.196;3.510;2023-03-01T04:02:20;-0.80;82.40
15666;DHT22;20725;51.196;3.510;2023-03-01T04:05:10;-0.80;83.10
15666;DHT22;20725;51.196;3.510;2023-03-01T04:07:39;-0.70;83.90
15666;DHT22;20725;51.196;3.510;2023-03-01T04:10:18;-0.70;84.00
15666;DHT22;20725;51.196;3.510;2023-03-01T04:13:08;-0.80;83.00
15666;DHT22;20725;51.196;3.510;2023-03-01T04:15:43;-0.70;83.30
15666;DHT22;20725;51.196;3.510;2023-03-01T04:18:27;-0.90;82.90
15666;DHT22;20725;51.196;3.510;2023-03-01T04:21:03;-0.90;82.90
15666;DHT22;20725;51.196;3.510;2023-03-01T04:23:38;-0.90;83.10
15666;DHT22;20725;51.196;3.510;2023-03-01T04:26:15;-0.80;83.00
15666;DHT22;20725;51.196;3.510;2023-03-01T04:28:52;-1.00;83.40
15666;DHT22;20725;51.196;3.510;2023-03-01T04:31:20;-1.00;82.70
15666;DHT22;20725;51.196;3.510;2023-03-01T04:33:52;-1.10;83.30
15666;DHT22;20725;51.196;3.510;2023-03-01T04:36:21;-1.10;83.10
15666;DHT22;20725;51.196;3.510;2023-03-01T04:38:59;-1.10;83.80
15666;DHT22;20725;51.196;3.510;2023-03-01T04:41:40;-1.00;84.30
15666;DHT22;20725;51.196;3.510;2023-03-01T04:44:47;-1.00;83.40
15666;DHT22;20725;51.196;3.510;2023-03-01T04:47:20;-1.10;84.40
15666;DHT22;20725;51.196;3.510;2023-03-01T04:49:47;-1.10;83.20
15666;DHT22;20725;51.196;3.510;2023-03-01T04:52:14;-1.20;83.80
15666;DHT22;20725;51.196;3.510;2023-03-01T04:54:45;-1.10;83.80
15666;DHT22;20725;51.196;3.510;2023-03-01T04:57:25;-1.10;84.20
15666;DHT22;20725;51.196;3.510;2023-03-01T05:00:00;-1.10;84.60
15666;DHT22;20725;51.196;3.510;2023-03-01T05:02:52;-1.10;84.00
15666;DHT22;20725;51.196;3.510;2023-03-01T05:05:27;-1.20;84.40
15666;DHT22;20725;51.196;3.510;2023-03-01T05:08:00;-1.20;84.20
15666;DHT22;20725;51.196;3.510;2023-03-01T05:10:34;-1.20;84.00
15666;DHT22;20725;51.196;3.510;2023-03-01T05:13:03;-1.30;84.10
15666;DHT22;20725;51.196;3.510;2023-03-01T05:15:32;-1.30;84.10
15666;DHT22;20725;51.196;3.510;2023-03-01T05:18:00;-1.30;84.00
15666;DHT22;20725;51.196;3.510;2023-03-01T05:20:29;-1.30;84.40
15666;DHT22;20725;51.196;3.510;2023-03-01T05:23:01;-1.40;84.30
15666;DHT22;20725;51.196;3.510;2023-03-01T05:25:34;-1.40;84.00
15666;DHT22;20725;51.196;3.510;2023-03-01T05:28:07;-1.40;84.10
15666;DHT22;20725;51.196;3.510;2023-03-01T05:30:36;-1.40;84.50
15666;DHT22;20725;51.196;3.510;2023-03-01T05:33:08;-1.50;84.10
15666;DHT22;20725;51.196;3.510;2023-03-01T05:35:42;-1.50;84.70
15666;DHT22;20725;51.196;3.510;2023-03-01T05:38:21;-1.50;84.50
15666;DHT22;20725;51.196;3.510;2023-03-01T05:41:04;-1.50;84.50
15666;DHT22;20725;51.196;3.510;2023-03-01T05:43:34;-1.50;85.30
15666;DHT22;20725;51.196;3.510;2023-03-01T05:46:04;-1.50;84.50
15666;DHT22;20725;51.196;3.510;2023-03-01T05:48:32;-1.60;84.50
15666;DHT22;20725;51.196;3.510;2023-03-01T05:51:07;-1.50;84.50
15666;DHT22;20725;51.196;3.510;2023-03-01T05:53:43;-1.60;84.50
15666;DHT22;20725;51.196;3.510;2023-03-01T05:56:14;-1.50;84.10
15666;DHT22;20725;51.196;3.510;2023-03-01T06:02:17;-1.60;85.20
15666;DHT22;20725;51.196;3.510;2023-03-01T06:04:54;-1.60;84.20
15666;DHT22;20725;51.196;3.510;2023-03-01T06:07:45;-1.60;84.70
15666;DHT22;20725;51.196;3.510;2023-03-01T06:10:16;-1.50;84.70
15666;DHT22;20725;51.196;3.510;2023-03-01T06:12:46;-1.50;85.00
15666;DHT22;20725;51.196;3.510;2023-03-01T06:15:19;-1.50;84.80
15666;DHT22;20725;51.196;3.510;2023-03-01T06:18:12;-1.50;85.10
15666;DHT22;20725;51.196;3.510;2023-03-01T06:20:51;-1.50;84.50
15666;DHT22;20725;51.196;3.510;2023-03-01T06:23:33;-1.50;84.50
15666;DHT22;20725;51.196;3.510;2023-03-01T06:26:06;-1.40;84.90
15666;DHT22;20725;51.196;3.510;2023-03-01T06:28:39;-1.50;84.80
15666;DHT22;20725;51.196;3.510;2023-03-01T06:31:06;-1.30;84.10
15666;DHT22;20725;51.196;3.510;2023-03-01T06:33:44;-1.30;84.40
15666;DHT22;20725;51.196;3.510;2023-03-01T06:36:13;-1.40;84.70
15666;DHT22;20725;51.196;3.510;2023-03-01T06:38:46;-1.40;84.10
15666;DHT22;20725;51.196;3.510;2023-03-01T06:41:26;-1.30;84.40
15666;DHT22;20725;51.196;3.510;2023-03-01T06:43:59;-1.30;84.90
15666;DHT22;20725;51.196;3.510;2023-03-01T06:46:48;-1.20;84.20
15666;DHT22;20725;51.196;3.510;2023-03-01T06:49:30;-1.20;84.40
15666;DHT22;20725;51.196;3.510;2023-03-01T06:52:04;-1.00;84.40
15666;DHT22;20725;51.196;3.510;2023-03-01T06:54:34;-0.90;84.00
15666;DHT22;20725;51.196;3.510;2023-03-01T06:57:02;-0.80;84.00
15666;DHT22;20725;51.196;3.510;2023-03-01T06:59:32;-0.70;83.30
15666;DHT22;20725;51.196;3.510;2023-03-01T07:02:08;-0.50;83.30
15666;DHT22;20725;51.196;3.510;2023-03-01T07:04:41;-0.40;83.10
15666;DHT22;20725;51.196;3.510;2023-03-01T07:07:19;-0.30;82.50
15666;DHT22;20725;51.196;3.510;2023-03-01T07:09:48;-0.10;81.90
15666;DHT22;20725;51.196;3.510;2023-03-01T07:12:15;0.10;82.00
15666;DHT22;20725;51.196;3.510;2023-03-01T07:14:45;0.30;81.40
15666;DHT22;20725;51.196;3.510;2023-03-01T07:17:21;0.40;81.00
15666;DHT22;20725;51.196;3.510;2023-03-01T07:19:49;0.60;81.00
15666;DHT22;20725;51.196;3.510;2023-03-01T07:22:22;0.70;80.90
15666;DHT22;20725;51.196;3.510;2023-03-01T07:24:53;1.00;80.40
15666;DHT22;20725;51.196;3.510;2023-03-01T07:27:36;1.10;79.90
15666;DHT22;20725;51.196;3.510;2023-03-01T07:30:17;1.30;79.70
15666;DHT22;20725;51.196;3.510;2023-03-01T07:32:52;1.60;79.20
15666;DHT22;20725;51.196;3.510;2023-03-01T07:35:41;1.80;79.20
15666;DHT22;20725;51.196;3.510;2023-03-01T07:38:19;2.10;79.10
15666;DHT22;20725;51.196;3.510;2023-03-01T07:40:52;2.50;78.00
15666;DHT22;20725;51.196;3.510;2023-03-01T07:43:26;3.40;77.20
15666;DHT22;20725;51.196;3.510;2023-03-01T07:46:04;4.50;74.50
15666;DHT22;20725;51.196;3.510;2023-03-01T07:48:34;6.10;69.80
15666;DHT22;20725;51.196;3.510;2023-03-01T07:51:15;7.60;67.80
15666;DHT22;20725;51.196;3.510;2023-03-01T07:54:01;9.20;64.80
15666;DHT22;20725;51.196;3.510;2023-03-01T07:56:31;10.60;58.20
15666;DHT22;20725;51.196;3.510;2023-03-01T07:59:14;11.90;57.60
15666;DHT22;20725;51.196;3.510;2023-03-01T08:02:01;13.10;54.90
15666;DHT22;20725;51.196;3.510;2023-03-01T08:04:35;14.30;49.80
15666;DHT22;20725;51.196;3.510;2023-03-01T08:07:12;15.30;48.10
15666;DHT22;20725;51.196;3.510;2023-03-01T08:09:51;16.40;41.00
15666;DHT22;20725;51.196;3.510;2023-03-01T08:12:26;17.30;42.30
15666;DHT22;20725;51.196;3.510;2023-03-01T08:15:06;18.00;39.30
15666;DHT22;20725;51.196;3.510;2023-03-01T08:18:30;18.70;35.60
15666;DHT22;20725;51.196;3.510;2023-03-01T08:20:42;19.50;32.90
15666;DHT22;20725;51.196;3.510;2023-03-01T08:23:15;20.20;32.10
15666;DHT22;20725;51.196;3.510;2023-03-01T08:25:45;20.90;30.90
15666;DHT22;20725;51.196;3.510;2023-03-01T08:28:23;21.30;28.80
15666;DHT22;20725;51.196;3.510;2023-03-01T08:31:12;21.90;28.20
15666;DHT22;20725;51.196;3.510;2023-03-01T08:34:23;22.60;27.40
15666;DHT22;20725;51.196;3.510;2023-03-01T08:37:14;23.50;26.50
15666;DHT22;20725;51.196;3.510;2023-03-01T08:39:58;24.00;25.00
15666;DHT22;20725;51.196;3.510;2023-03-01T08:42:38;24.60;23.70
15666;DHT22;20725;51.196;3.510;2023-03-01T08:45:24;25.10;22.60
15666;DHT22;20725;51.196;3.510;2023-03-01T08:48:04;25.40;22.70
15666;DHT22;20725;51.196;3.510;2023-03-01T08:50:46;25.70;21.40
15666;DHT22;20725;51.196;3.510;2023-03-01T08:53:19;25.90;21.40
15666;DHT22;20725;51.196;3.510;2023-03-01T08:55:48;26.10;20.30
15666;DHT22;20725;51.196;3.510;2023-03-01T08:58:29;26.60;19.90
15666;DHT22;20725;51.196;3.510;2023-03-01T09:01:13;26.70;19.30
15666;DHT22;20725;51.196;3.510;2023-03-01T09:04:29;27.20;19.10
15666;DHT22;20725;51.196;3.510;2023-03-01T09:06:55;27.30;19.30
15666;DHT22;20725;51.196;3.510;2023-03-01T09:09:42;27.80;18.70
15666;DHT22;20725;51.196;3.510;2023-03-01T09:12:19;28.20;17.80
15666;DHT22;20725;51.196;3.510;2023-03-01T09:14:59;28.10;17.50
15666;DHT22;20725;51.196;3.510;2023-03-01T09:17:29;28.40;17.50
15666;DHT22;20725;51.196;3.510;2023-03-01T09:20:13;28.40;16.50
15666;DHT22;20725;51.196;3.510;2023-03-01T09:22:45;28.60;17.00
15666;DHT22;20725;51.196;3.510;2023-03-01T09:25:29;28.90;15.10
15666;DHT22;20725;51.196;3.510;2023-03-01T09:28:10;29.10;15.90
15666;DHT22;20725;51.196;3.510;2023-03-01T09:30:42;28.90;15.00
15666;DHT22;20725;51.196;3.510;2023-03-01T09:33:45;29.10;15.10
15666;DHT22;20725;51.196;3.510;2023-03-01T09:36:25;27.90;13.10
15666;DHT22;20725;51.196;3.510;2023-03-01T09:39:03;28.20;14.50
15666;DHT22;20725;51.196;3.510;2023-03-01T09:41:48;28.40;14.40
15666;DHT22;20725;51.196;3.510;2023-03-01T09:44:40;28.20;15.40
15666;DHT22;20725;51.196;3.510;2023-03-01T09:47:17;28.60;14.80
15666;DHT22;20725;51.196;3.510;2023-03-01T09:49:57;28.80;14.90
15666;DHT22;20725;51.196;3.510;2023-03-01T09:52:33;28.80;15.40
15666;DHT22;20725;51.196;3.510;2023-03-01T09:55:09;29.20;13.80
15666;DHT22;20725;51.196;3.510;2023-03-01T09:57:45;28.80;15.40
15666;DHT22;20725;51.196;3.510;2023-03-01T10:00:44;29.20;14.60
15666;DHT22;20725;51.196;3.510;2023-03-01T10:03:55;29.40;13.00
15666;DHT22;20725;51.196;3.510;2023-03-01T10:06:55;29.00;13.20
15666;DHT22;20725;51.196;3.510;2023-03-01T10:09:40;28.90;12.50
15666;DHT22;20725;51.196;3.510;2023-03-01T10:12:33;29.20;13.10
15666;DHT22;20725;51.196;3.510;2023-03-01T10:15:20;30.30;14.10
15666;DHT22;20725;51.196;3.510;2023-03-01T10:18:22;30.50;12.80
15666;DHT22;20725;51.196;3.510;2023-03-01T10:21:05;30.00;13.30
15666;DHT22;20725;51.196;3.510;2023-03-01T10:23:38;30.50;12.80
15666;DHT22;20725;51.196;3.510;2023-03-01T10:26:25;31.30;12.50
15666;DHT22;20725;51.196;3.510;2023-03-01T10:29:16;31.80;12.80
15666;DHT22;20725;51.196;3.510;2023-03-01T10:31:51;32.10;12.50
15666;DHT22;20725;51.196;3.510;2023-03-01T10:34:27;31.90;12.40
15666;DHT22;20725;51.196;3.510;2023-03-01T10:37:16;31.80;11.30
15666;DHT22;20725;51.196;3.510;2023-03-01T10:40:02;31.50;12.10
15666;DHT22;20725;51.196;3.510;2023-03-01T10:42:47;31.60;11.60
15666;DHT22;20725;51.196;3.510;2023-03-01T10:45:32;32.00;12.00
15666;DHT22;20725;51.196;3.510;2023-03-01T10:48:11;32.40;12.00
15666;DHT22;20725;51.196;3.510;2023-03-01T10:50:50;31.60;11.80
15666;DHT22;20725;51.196;3.510;2023-03-01T10:53:27;31.50;11.90
15666;DHT22;20725;51.196;3.510;2023-03-01T10:56:24;31.10;10.60
15666;DHT22;20725;51.196;3.510;2023-03-01T10:59:19;31.70;12.10
15666;DHT22;20725;51.196;3.510;2023-03-01T11:02:20;32.60;11.30
15666;DHT22;20725;51.196;3.510;2023-03-01T11:05:17;33.10;11.50
15666;DHT22;20725;51.196;3.510;2023-03-01T11:08:07;33.90;11.10
15666;DHT22;20725;51.196;3.510;2023-03-01T11:10:39;33.90;10.30
15666;DHT22;20725;51.196;3.510;2023-03-01T11:13:14;34.00;10.40
15666;DHT22;20725;51.196;3.510;2023-03-01T11:16:02;33.90;10.60
15666;DHT22;20725;51.196;3.510;2023-03-01T11:19:18;34.30;11.10
15666;DHT22;20725;51.196;3.510;2023-03-01T11:22:10;33.90;10.20
15666;DHT22;20725;51.196;3.510;2023-03-01T11:24:56;33.90;10.00
15666;DHT22;20725;51.196;3.510;2023-03-01T11:27:45;33.10;10.90
15666;DHT22;20725;51.196;3.510;2023-03-01T11:30:24;34.00;10.10
15666;DHT22;20725;51.196;3.510;2023-03-01T11:33:43;33.70;10.90
15666;DHT22;20725;51.196;3.510;2023-03-01T11:36:18;33.30;10.60
15666;DHT22;20725;51.196;3.510;2023-03-01T11:39:11;35.40;11.20
15666;DHT22;20725;51.196;3.510;2023-03-01T11:42:05;36.60;9.90
15666;DHT22;20725;51.196;3.510;2023-03-01T11:44:49;35.40;9.10
15666;DHT22;20725;51.196;3.510;2023-03-01T11:50:46;35.80;10.10
15666;DHT22;20725;51.196;3.510;2023-03-01T11:53:42;35.90;10.30
15666;DHT22;20725;51.196;3.510;2023-03-01T11:56:27;36.80;8.90
15666;DHT22;20725;51.196;3.510;2023-03-01T12:02:49;37.40;10.40
15666;DHT22;20725;51.196;3.510;2023-03-01T12:05:47;37.40;8.80
15666;DHT22;20725;51.196;3.510;2023-03-01T12:08:38;37.10;8.30
15666;DHT22;20725;51.196;3.510;2023-03-01T12:11:22;37.10;9.40
15666;DHT22;20725;51.196;3.510;2023-03-01T12:14:30;38.00;9.10
15666;DHT22;20725;51.196;3.510;2023-03-01T12:17:28;38.10;9.30
15666;DHT22;20725;51.196;3.510;2023-03-01T12:20:20;37.60;8.00
15666;DHT22;20725;51.196;3.510;2023-03-01T12:23:34;37.70;8.70
15666;DHT22;20725;51.196;3.510;2023-03-01T12:26:16;37.90;9.40
15666;DHT22;20725;51.196;3.510;2023-03-01T12:29:06;37.90;8.50
15666;DHT22;20725;51.196;3.510;2023-03-01T12:35:23;38.50;8.90
15666;DHT22;20725;51.196;3.510;2023-03-01T12:38:02;37.80;8.60
15666;DHT22;20725;51.196;3.510;2023-03-01T12:44:40;36.50;8.30
15666;DHT22;20725;51.196;3.510;2023-03-01T12:47:55;36.70;10.00
15666;DHT22;20725;51.196;3.510;2023-03-01T12:50:44;36.80;9.60
15666;DHT22;20725;51.196;3.510;2023-03-01T12:53:22;38.50;9.10
15666;DHT22;20725;51.196;3.510;2023-03-01T12:56:06;38.20;8.90
15666;DHT22;20725;51.196;3.510;2023-03-01T12:58:46;38.50;9.00
15666;DHT22;20725;51.196;3.510;2023-03-01T13:01:30;39.20;8.30
15666;DHT22;20725;51.196;3.510;2023-03-01T13:04:19;39.30;8.40
15666;DHT22;20725;51.196;3.510;2023-03-01T13:07:06;39.00;8.30
15666;DHT22;20725;51.196;3.510;2023-03-01T13:09:54;38.50;7.40
15666;DHT22;20725;51.196;3.510;2023-03-01T13:13:13;38.10;9.30
15666;DHT22;20725;51.196;3.510;2023-03-01T13:16:21;38.00;9.10
15666;DHT22;20725;51.196;3.510;2023-03-01T13:18:56;38.60;8.00
15666;DHT22;20725;51.196;3.510;2023-03-01T13:21:45;39.40;8.60
15666;DHT22;20725;51.196;3.510;2023-03-01T13:24:41;39.60;7.80
15666;DHT22;20725;51.196;3.510;2023-03-01T13:27:23;39.90;8.90
15666;DHT22;20725;51.196;3.510;2023-03-01T13:29:58;40.10;8.40
15666;DHT22;20725;51.196;3.510;2023-03-01T13:32:36;39.40;7.00
15666;DHT22;20725;51.196;3.510;2023-03-01T13:35:41;38.70;7.60
15666;DHT22;20725;51.196;3.510;2023-03-01T13:38:37;39.00;7.90
15666;DHT22;20725;51.196;3.510;2023-03-01T13:41:52;39.40;8.80
15666;DHT22;20725;51.196;3.510;2023-03-01T13:44:49;39.90;8.30
15666;DHT22;20725;51.196;3.510;2023-03-01T13:47:37;39.20;7.50
15666;DHT22;20725;51.196;3.510;2023-03-01T13:50:06;39.20;8.30
15666;DHT22;20725;51.196;3.510;2023-03-01T13:52:44;38.30;7.80
15666;DHT22;20725;51.196;3.510;2023-03-01T13:55:35;37.60;8.50
15666;DHT22;20725;51.196;3.510;2023-03-01T13:58:21;38.70;8.50
15666;DHT22;20725;51.196;3.510;2023-03-01T14:01:06;38.90;7.60
15666;DHT22;20725;51.196;3.510;2023-03-01T14:03:57;38.00;8.30
15666;DHT22;20725;51.196;3.510;2023-03-01T14:06:32;37.80;8.50
15666;DHT22;20725;51.196;3.510;2023-03-01T14:09:14;37.20;8.30
15666;DHT22;20725;51.196;3.510;2023-03-01T14:12:05;37.70;8.20
15666;DHT22;20725;51.196;3.510;2023-03-01T14:15:04;36.60;8.10
15666;DHT22;20725;51.196;3.510;2023-03-01T14:18:00;35.90;9.20
15666;DHT22;20725;51.196;3.510;2023-03-01T14:20:39;35.80;9.30
15666;DHT22;20725;51.196;3.510;2023-03-01T14:23:21;36.40;9.10
15666;DHT22;20725;51.196;3.510;2023-03-01T14:25:57;37.30;8.50
15666;DHT22;20725;51.196;3.510;2023-03-01T14:28:41;38.10;8.50
15666;DHT22;20725;51.196;3.510;2023-03-01T14:31:36;38.30;8.50
15666;DHT22;20725;51.196;3.510;2023-03-01T14:34:25;37.80;8.00
15666;DHT22;20725;51.196;3.510;2023-03-01T14:37:15;36.50;8.80
15666;DHT22;20725;51.196;3.510;2023-03-01T14:39:44;36.00;8.40
15666;DHT22;20725;51.196;3.510;2023-03-01T14:42:15;36.40;8.80
15666;DHT22;20725;51.196;3.510;2023-03-01T14:45:06;36.20;8.70
15666;DHT22;20725;51.196;3.510;2023-03-01T14:47:41;34.70;9.00
15666;DHT22;20725;51.196;3.510;2023-03-01T14:50:25;35.40;9.30
15666;DHT22;20725;51.196;3.510;2023-03-01T14:53:11;35.20;9.70
15666;DHT22;20725;51.196;3.510;2023-03-01T14:55:47;35.90;9.00
15666;DHT22;20725;51.196;3.510;2023-03-01T14:58:26;35.20;8.90
15666;DHT22;20725;51.196;3.510;2023-03-01T15:01:06;34.20;9.00
15666;DHT22;20725;51.196;3.510;2023-03-01T15:03:50;34.00;8.80
15666;DHT22;20725;51.196;3.510;2023-03-01T15:06:21;34.80;9.50
15666;DHT22;20725;51.196;3.510;2023-03-01T15:09:00;34.70;8.90
15666;DHT22;20725;51.196;3.510;2023-03-01T15:11:30;34.10;9.30
15666;DHT22;20725;51.196;3.510;2023-03-01T15:14:39;33.00;9.50
15666;DHT22;20725;51.196;3.510;2023-03-01T15:17:30;32.60;10.90
15666;DHT22;20725;51.196;3.510;2023-03-01T15:20:26;33.60;10.40
15666;DHT22;20725;51.196;3.510;2023-03-01T15:22:56;33.50;9.90
15666;DHT22;20725;51.196;3.510;2023-03-01T15:25:48;32.70;9.90
15666;DHT22;20725;51.196;3.510;2023-03-01T15:28:25;32.60;10.30
15666;DHT22;20725;51.196;3.510;2023-03-01T15:31:06;32.00;10.40
15666;DHT22;20725;51.196;3.510;2023-03-01T15:33:41;31.40;10.60
15666;DHT22;20725;51.196;3.510;2023-03-01T15:36:37;31.20;10.20
15666;DHT22;20725;51.196;3.510;2023-03-01T15:39:31;29.90;11.20
15666;DHT22;20725;51.196;3.510;2023-03-01T15:42:38;29.60;11.60
15666;DHT22;20725;51.196;3.510;2023-03-01T15:45:09;28.70;12.40
15666;DHT22;20725;51.196;3.510;2023-03-01T15:47:49;28.10;12.10
15666;DHT22;20725;51.196;3.510;2023-03-01T15:50:21;27.90;12.60
15666;DHT22;20725;51.196;3.510;2023-03-01T15:52:59;28.20;12.20
15666;DHT22;20725;51.196;3.510;2023-03-01T15:55:47;26.70;12.40
15666;DHT22;20725;51.196;3.510;2023-03-01T15:58:23;26.20;13.30
15666;DHT22;20725;51.196;3.510;2023-03-01T16:00:52;26.10;13.70
15666;DHT22;20725;51.196;3.510;2023-03-01T16:03:25;23.10;14.60
15666;DHT22;20725;51.196;3.510;2023-03-01T16:05:54;19.20;18.00
15666;DHT22;20725;51.196;3.510;2023-03-01T16:08:28;16.70;21.20
15666;DHT22;20725;51.196;3.510;2023-03-01T16:11:00;14.80;23.50
15666;DHT22;20725;51.196;3.510;2023-03-01T16:13:38;13.50;25.60
15666;DHT22;20725;51.196;3.510;2023-03-01T16:16:08;12.20;28.50
15666;DHT22;20725;51.196;3.510;2023-03-01T16:18:44;11.50;28.30
15666;DHT22;20725;51.196;3.510;2023-03-01T16:21:19;10.80;30.00
15666;DHT22;20725;51.196;3.510;2023-03-01T16:23:55;10.40;32.00
15666;DHT22;20725;51.196;3.510;2023-03-01T16:26:39;9.90;33.10
15666;DHT22;20725;51.196;3.510;2023-03-01T16:29:15;9.50;34.20
15666;DHT22;20725;51.196;3.510;2023-03-01T16:31:58;9.20;35.00
15666;DHT22;20725;51.196;3.510;2023-03-01T16:34:40;8.90;36.50
15666;DHT22;20725;51.196;3.510;2023-03-01T16:37:16;8.60;36.50
15666;DHT22;20725;51.196;3.510;2023-03-01T16:39:47;8.30;37.30
15666;DHT22;20725;51.196;3.510;2023-03-01T16:42:39;8.20;37.10
15666;DHT22;20725;51.196;3.510;2023-03-01T16:45:21;8.00;37.20
15666;DHT22;20725;51.196;3.510;2023-03-01T16:47:54;7.80;39.30
15666;DHT22;20725;51.196;3.510;2023-03-01T16:50:38;7.60;38.10
15666;DHT22;20725;51.196;3.510;2023-03-01T16:53:13;7.50;39.40
15666;DHT22;20725;51.196;3.510;2023-03-01T16:55:41;7.20;39.50
15666;DHT22;20725;51.196;3.510;2023-03-01T16:58:19;7.20;39.60
15666;DHT22;20725;51.196;3.510;2023-03-01T17:00:49;7.00;41.40
15666;DHT22;20725;51.196;3.510;2023-03-01T17:03:29;6.80;42.10
15666;DHT22;20725;51.196;3.510;2023-03-01T17:06:03;6.70;42.10
15666;DHT22;20725;51.196;3.510;2023-03-01T17:08:31;6.50;42.50
15666;DHT22;20725;51.196;3.510;2023-03-01T17:11:09;6.30;42.30
15666;DHT22;20725;51.196;3.510;2023-03-01T17:13:40;6.30;44.10
15666;DHT22;20725;51.196;3.510;2023-03-01T17:16:16;6.00;43.40
15666;DHT22;20725;51.196;3.510;2023-03-01T17:18:49;5.90;44.70
15666;DHT22;20725;51.196;3.510;2023-03-01T17:21:17;5.70;45.10
15666;DHT22;20725;51.196;3.510;2023-03-01T17:23:46;5.60;44.90
15666;DHT22;20725;51.196;3.510;2023-03-01T17:26:21;5.50;46.10
15666;DHT22;20725;51.196;3.510;2023-03-01T17:29:04;5.40;46.70
15666;DHT22;20725;51.196;3.510;2023-03-01T17:31:52;5.20;46.90
15666;DHT22;20725;51.196;3.510;2023-03-01T17:34:27;5.00;47.20
15666;DHT22;20725;51.196;3.510;2023-03-01T17:36:58;5.00;46.70
15666;DHT22;20725;51.196;3.510;2023-03-01T17:39:26;4.80;47.90